< < Back
Terminal Aerodrome Forecast


Current Version              Previous Versions:   1  2  3  4  5  6  7  8  9  

Terminal Aerodrome Forecast

179
FTUS42 KMLB 021400 AAA
TAFMCO
TAF AMD
KMCO 021455Z 0215/0312 09007KT P6SM SCT025 BKN250
     FM021900 10008KT P6SM VCTS SCT030CB BKN060
     FM030100 12003KT P6SM FEW035 BKN250=

Latest METAR

258
SAUS70 KWBC 021700 RRJ
MTRMCO
METAR KMCO 021653Z 05003KT 10SM SCT041 SCT070 BKN250 33/21 A3009 RMK AO2
SLP188 T03280206


USA.gov is the U.S. government's official web portal to all federal, state and local government web resources and services.